createdAt,value
2019-04-04T00:01:24.171Z,3.67
2019-04-04T00:03:53.187Z,3.87
2019-04-04T00:06:21.932Z,4.10
2019-04-04T00:08:50.729Z,3.80
2019-04-04T00:11:19.487Z,4.03
2019-04-04T00:13:48.266Z,3.97
2019-04-04T00:16:17.008Z,4.20
2019-04-04T00:18:45.806Z,3.93
2019-04-04T00:21:14.581Z,4.37
2019-04-04T00:23:43.605Z,4.00
2019-04-04T00:26:12.451Z,4.37
2019-04-04T00:28:41.221Z,4.40
2019-04-04T00:31:10.194Z,4.40
2019-04-04T00:33:39.211Z,3.97
2019-04-04T00:36:07.988Z,4.13
2019-04-04T00:38:37.966Z,4.27
2019-04-04T00:41:07.406Z,4.33
2019-04-04T00:43:36.171Z,4.33
2019-04-04T00:46:05.247Z,4.50
2019-04-04T00:48:34.174Z,4.30
2019-04-04T00:51:03.824Z,4.60
2019-04-04T00:53:32.583Z,4.80
2019-04-04T00:56:01.344Z,4.13
2019-04-04T00:58:30.344Z,4.80
2019-04-04T01:00:59.183Z,4.67
2019-04-04T01:03:28.108Z,4.77
2019-04-04T01:05:58.435Z,5.43
2019-04-04T01:08:27.426Z,4.57
2019-04-04T01:10:56.188Z,5.20
2019-04-04T01:13:27.523Z,5.77
2019-04-04T01:15:55.967Z,5.77
2019-04-04T01:18:24.715Z,6.33
2019-04-04T01:20:53.719Z,5.70
2019-04-04T01:23:22.473Z,6.07
2019-04-04T01:25:51.236Z,5.63
2019-04-04T01:28:20.256Z,5.37
2019-04-04T01:30:49.376Z,6.13
2019-04-04T01:33:19.743Z,5.93
2019-04-04T01:35:48.872Z,6.13
2019-04-04T01:38:17.633Z,6.30
2019-04-04T01:40:46.653Z,6.43
2019-04-04T01:43:15.400Z,5.97
2019-04-04T01:45:44.969Z,6.73
2019-04-04T01:48:13.883Z,6.83
2019-04-04T01:50:42.646Z,6.03
2019-04-04T01:53:11.651Z,6.27
2019-04-04T01:55:40.402Z,6.87
2019-04-04T01:58:09.988Z,6.27
2019-04-04T02:00:39.984Z,6.67
2019-04-04T02:03:08.995Z,6.60
2019-04-04T02:05:37.753Z,7.10
2019-04-04T02:08:06.765Z,6.40
2019-04-04T02:10:35.533Z,6.60
2019-04-04T02:13:04.530Z,7.53
2019-04-04T02:15:33.543Z,7.13
2019-04-04T02:18:02.534Z,6.60
2019-04-04T02:20:31.290Z,7.20
2019-04-04T02:23:01.483Z,7.70
2019-04-04T02:25:32.045Z,7.13
2019-04-04T02:28:01.734Z,7.57
2019-04-04T02:30:30.540Z,7.87
2019-04-04T02:33:00.511Z,7.37
2019-04-04T02:35:29.439Z,7.70
2019-04-04T02:37:58.611Z,6.53
2019-04-04T02:40:27.479Z,7.33
2019-04-04T02:42:56.372Z,8.77
2019-04-04T02:45:25.214Z,7.40
2019-04-04T02:47:53.967Z,7.87
2019-04-04T02:50:22.736Z,7.70
2019-04-04T02:52:51.597Z,8.07
2019-04-04T02:55:20.692Z,7.77
2019-04-04T02:57:49.548Z,8.33
2019-04-04T03:00:18.734Z,8.73
2019-04-04T03:02:47.732Z,7.83
2019-04-04T03:05:18.764Z,7.73
2019-04-04T03:07:47.341Z,8.50
2019-04-04T03:10:16.812Z,8.80
2019-04-04T03:12:45.986Z,7.87
2019-04-04T03:15:14.828Z,8.50
2019-04-04T03:17:43.587Z,8.80
2019-04-04T03:20:16.364Z,8.30
2019-04-04T03:22:43.002Z,9.37
2019-04-04T03:25:14.698Z,8.93
2019-04-04T03:27:42.319Z,9.17
2019-04-04T03:30:14.369Z,9.63
2019-04-04T03:32:42.174Z,9.17
2019-04-04T03:35:11.153Z,9.43
2019-04-04T03:37:41.099Z,9.97
2019-04-04T03:40:10.798Z,9.80
2019-04-04T03:42:43.967Z,9.97
2019-04-04T03:45:10.479Z,10.10
2019-04-04T03:47:43.424Z,9.77
2019-04-04T03:50:10.164Z,10.67
2019-04-04T03:52:43.380Z,9.87
2019-04-04T03:55:09.489Z,10.10
2019-04-04T03:57:38.576Z,10.80
2019-04-04T04:00:08.015Z,10.07
2019-04-04T04:02:36.815Z,10.27
2019-04-04T04:05:18.126Z,11.60
2019-04-04T04:07:48.043Z,11.47
2019-04-04T04:10:17.765Z,10.77
2019-04-04T04:12:46.533Z,11.70
2019-04-04T04:15:15.577Z,11.43
2019-04-04T04:17:45.655Z,11.43
2019-04-04T04:20:15.435Z,11.37
2019-04-04T04:22:44.497Z,12.40
2019-04-04T04:25:13.923Z,11.43
2019-04-04T04:27:47.168Z,12.37
2019-04-04T04:30:13.295Z,12.50
2019-04-04T04:32:42.168Z,12.90
2019-04-04T04:35:11.146Z,12.20
2019-04-04T04:37:40.213Z,12.77
2019-04-04T04:40:13.915Z,13.20
2019-04-04T04:42:39.576Z,12.40
2019-04-04T04:45:10.878Z,13.80
2019-04-04T04:47:39.103Z,13.20
2019-04-04T04:50:09.618Z,13.63
2019-04-04T04:52:39.169Z,13.50
2019-04-04T04:55:08.154Z,13.40
2019-04-04T04:57:38.190Z,13.00
2019-04-04T05:00:07.330Z,14.43
2019-04-04T05:02:36.133Z,13.67
2019-04-04T05:05:05.702Z,22.70
2019-04-04T05:07:34.819Z,15.03
2019-04-04T05:10:04.156Z,15.73
2019-04-04T05:12:33.000Z,14.17
2019-04-04T05:15:02.215Z,15.70
2019-04-04T05:17:31.656Z,15.30
2019-04-04T05:20:00.420Z,15.37
2019-04-04T05:22:29.232Z,14.93
2019-04-04T05:25:08.093Z,14.37
2019-04-04T05:27:28.510Z,15.67
2019-04-04T05:29:57.374Z,14.63
2019-04-04T05:32:26.691Z,14.60
2019-04-04T05:34:55.480Z,15.67
2019-04-04T05:37:27.236Z,14.67
2019-04-04T05:39:55.418Z,16.00
2019-04-04T05:42:24.272Z,15.30
2019-04-04T05:44:53.031Z,16.20
2019-04-04T05:47:23.307Z,15.80
2019-04-04T05:49:53.053Z,14.73
2019-04-04T05:52:22.065Z,15.30
2019-04-04T05:54:50.852Z,15.60
2019-04-04T05:57:20.025Z,14.00
2019-04-04T05:59:49.773Z,14.37
2019-04-04T06:02:18.595Z,15.67
2019-04-04T06:04:48.874Z,16.47
2019-04-04T06:07:18.217Z,15.27
2019-04-04T06:09:47.267Z,15.73
2019-04-04T06:12:16.198Z,14.83
2019-04-04T06:14:46.109Z,16.37
2019-04-04T06:17:14.967Z,15.93
2019-04-04T06:19:44.681Z,15.53
2019-04-04T06:22:14.256Z,16.03
2019-04-04T06:24:43.200Z,14.17
2019-04-04T06:27:12.140Z,14.60
2019-04-04T06:29:40.894Z,16.43
2019-04-04T06:32:09.666Z,15.40
2019-04-04T06:34:38.951Z,15.47
2019-04-04T06:37:07.737Z,14.40
2019-04-04T06:39:36.765Z,15.47
2019-04-04T06:42:05.598Z,16.07
2019-04-04T06:44:34.391Z,15.50
2019-04-04T06:47:03.178Z,15.40
2019-04-04T06:49:33.238Z,14.60
2019-04-04T06:52:02.738Z,14.43
2019-04-04T06:54:31.525Z,15.27
2019-04-04T06:57:03.525Z,15.27
2019-04-04T06:59:30.780Z,15.37
2019-04-04T07:02:00.032Z,14.53
2019-04-04T07:04:29.254Z,15.70
2019-04-04T07:06:59.284Z,14.30
2019-04-04T07:09:28.069Z,14.33
2019-04-04T07:11:57.069Z,13.90
2019-04-04T07:14:26.160Z,13.10
2019-04-04T07:16:54.988Z,15.50
2019-04-04T07:19:24.114Z,14.60
2019-04-04T07:21:52.874Z,14.77
2019-04-04T07:24:22.148Z,15.07
2019-04-04T07:26:50.938Z,14.50
2019-04-04T07:29:19.836Z,15.13
2019-04-04T07:31:48.592Z,15.77
2019-04-04T07:34:17.958Z,15.40
2019-04-04T07:36:49.093Z,16.27
2019-04-04T07:39:17.999Z,16.17
2019-04-04T07:41:46.827Z,14.20
2019-04-04T07:44:15.606Z,14.37
2019-04-04T07:46:45.714Z,14.57
2019-04-04T07:49:15.044Z,14.87
2019-04-04T07:51:44.072Z,15.40
2019-04-04T07:54:13.343Z,14.67
2019-04-04T07:56:43.520Z,14.63
2019-04-04T07:59:12.940Z,16.37
2019-04-04T08:01:50.850Z,15.20
2019-04-04T08:04:12.718Z,15.70
2019-04-04T08:06:42.013Z,16.10
2019-04-04T08:09:11.327Z,15.27
2019-04-04T08:11:40.563Z,16.00
2019-04-04T08:14:09.415Z,15.30
2019-04-04T08:16:38.165Z,15.97
2019-04-04T08:19:06.926Z,16.00
2019-04-04T08:21:35.678Z,16.77
2019-04-04T08:24:04.582Z,15.80
2019-04-04T08:26:33.807Z,18.30
2019-04-04T08:29:02.830Z,15.27
2019-04-04T08:31:31.583Z,16.00
2019-04-04T08:34:00.387Z,16.97
2019-04-04T08:36:29.428Z,16.67
2019-04-04T08:38:58.337Z,15.83
2019-04-04T08:41:27.620Z,17.27
2019-04-04T08:43:56.398Z,16.77
2019-04-04T08:46:25.171Z,16.37
2019-04-04T08:48:54.268Z,16.20
2019-04-04T08:51:23.387Z,15.17
2019-04-04T08:53:52.649Z,15.77
2019-04-04T08:56:21.515Z,15.43
2019-04-04T08:58:51.811Z,16.40
2019-04-04T09:01:20.990Z,17.57
2019-04-04T09:03:50.104Z,16.67
2019-04-04T09:06:19.199Z,15.77
2019-04-04T09:08:48.074Z,17.43
2019-04-04T09:11:17.188Z,16.77
2019-04-04T09:13:45.960Z,15.27
2019-04-04T09:16:14.820Z,15.73
2019-04-04T09:18:44.662Z,14.37
2019-04-04T09:21:13.492Z,15.23
2019-04-04T09:23:42.346Z,14.40
2019-04-04T09:26:11.179Z,14.30
2019-04-04T09:28:40.178Z,14.90
2019-04-04T09:31:09.271Z,14.73
2019-04-04T09:33:38.029Z,14.07
2019-04-04T09:36:06.900Z,13.60
2019-04-04T09:38:35.714Z,16.57
2019-04-04T09:41:04.911Z,15.87
2019-04-04T09:43:33.983Z,15.70
2019-04-04T09:46:03.756Z,13.53
2019-04-04T09:48:32.776Z,13.13
2019-04-04T09:51:01.872Z,12.57
2019-04-04T09:53:30.633Z,13.30
2019-04-04T09:55:59.651Z,13.63
2019-04-04T09:58:28.859Z,13.63
2019-04-04T10:00:57.923Z,12.60
2019-04-04T10:03:27.358Z,13.33
2019-04-04T10:05:56.719Z,12.80
2019-04-04T10:08:25.521Z,13.23
2019-04-04T10:10:54.303Z,14.67
2019-04-04T10:13:23.157Z,14.50
2019-04-04T10:15:52.155Z,13.67
2019-04-04T10:18:21.399Z,14.70
2019-04-04T10:20:50.658Z,13.13
2019-04-04T10:23:19.659Z,12.20
2019-04-04T10:25:48.503Z,13.23
2019-04-04T10:28:17.260Z,14.03
2019-04-04T10:30:46.273Z,12.03
2019-04-04T10:33:15.265Z,11.53
2019-04-04T10:35:44.400Z,12.77
2019-04-04T10:38:13.150Z,13.27
2019-04-04T10:40:42.190Z,13.90
2019-04-04T10:43:11.189Z,14.93
2019-04-04T10:45:40.312Z,14.63
2019-04-04T10:48:09.348Z,13.80
2019-04-04T10:50:38.406Z,13.43
2019-04-04T10:53:07.162Z,13.73
2019-04-04T10:55:36.022Z,13.83
2019-04-04T10:58:04.988Z,13.17
2019-04-04T11:00:34.042Z,14.00
2019-04-04T11:03:03.287Z,12.50
2019-04-04T11:05:35.093Z,13.43
2019-04-04T11:08:02.638Z,11.67
2019-04-04T11:10:31.744Z,12.00
2019-04-04T11:13:02.919Z,12.53
2019-04-04T11:15:31.851Z,11.53
2019-04-04T11:18:00.920Z,12.07
2019-04-04T11:20:29.931Z,12.83
2019-04-04T11:22:58.771Z,11.80
2019-04-04T11:25:27.786Z,13.07
2019-04-04T11:27:56.546Z,13.20
2019-04-04T11:30:25.663Z,14.17
2019-04-04T11:32:54.655Z,13.07
2019-04-04T11:35:23.754Z,14.53
2019-04-04T11:37:52.755Z,14.07
2019-04-04T11:40:21.813Z,14.47
2019-04-04T11:42:51.067Z,14.83
2019-04-04T11:45:20.160Z,15.57
2019-04-04T11:47:49.176Z,13.37
2019-04-04T11:50:18.120Z,14.83
2019-04-04T11:52:46.954Z,16.03
2019-04-04T11:55:16.231Z,15.60
2019-04-04T11:57:45.042Z,14.70
2019-04-04T12:00:18.363Z,16.50
2019-04-04T12:02:47.357Z,15.33
2019-04-04T12:05:16.398Z,15.50
2019-04-04T12:07:45.889Z,14.60
2019-04-04T12:10:16.258Z,14.80
2019-04-04T12:12:45.504Z,15.50
2019-04-04T12:15:14.409Z,14.73
2019-04-04T12:17:43.176Z,13.70
2019-04-04T12:20:12.101Z,16.50
2019-04-04T12:22:41.117Z,14.73
2019-04-04T12:25:10.367Z,16.53
2019-04-04T12:27:39.375Z,15.47
2019-04-04T12:30:08.990Z,15.87
2019-04-04T12:32:38.020Z,16.57
2019-04-04T12:35:07.180Z,15.50
2019-04-04T12:37:36.242Z,15.77
2019-04-04T12:40:05.284Z,17.27
2019-04-04T12:42:34.614Z,17.13
2019-04-04T12:45:05.399Z,15.83
2019-04-04T12:47:34.561Z,17.47
2019-04-04T12:50:03.450Z,17.87
2019-04-04T12:52:32.472Z,18.03
2019-04-04T12:55:02.056Z,17.97
2019-04-04T12:57:31.081Z,18.40
2019-04-04T13:00:00.111Z,21.37
2019-04-04T13:02:28.883Z,19.03
2019-04-04T13:04:57.671Z,18.63
2019-04-04T13:07:26.719Z,18.83
2019-04-04T13:09:56.203Z,18.77
2019-04-04T13:12:24.987Z,19.13
2019-04-04T13:14:54.234Z,19.17
2019-04-04T13:17:23.737Z,17.97
2019-04-04T13:19:52.751Z,18.63
2019-04-04T13:22:21.768Z,19.60
2019-04-04T13:24:50.781Z,18.40
2019-04-04T13:27:19.803Z,20.03
2019-04-04T13:29:49.058Z,19.60
2019-04-04T13:32:18.137Z,20.27
2019-04-04T13:34:58.394Z,20.07
2019-04-04T13:37:17.852Z,21.57
2019-04-04T13:39:46.872Z,18.50
2019-04-04T13:42:15.710Z,20.27
2019-04-04T13:44:45.082Z,18.90
2019-04-04T13:47:14.170Z,20.07
2019-04-04T13:49:44.502Z,18.80
2019-04-04T13:52:13.878Z,20.30
2019-04-04T13:54:42.998Z,21.53
2019-04-04T13:57:12.251Z,20.23
2019-04-04T13:59:41.894Z,20.20
2019-04-04T14:02:10.756Z,19.37
2019-04-04T14:04:39.837Z,19.17
2019-04-04T14:07:08.912Z,19.27
2019-04-04T14:09:37.723Z,21.77
2019-04-04T14:12:06.896Z,20.80
2019-04-04T14:14:36.287Z,21.33
2019-04-04T14:17:05.131Z,18.73
2019-04-04T14:19:33.937Z,19.80
2019-04-04T14:22:02.700Z,20.57
2019-04-04T14:24:31.713Z,18.60
2019-04-04T14:27:00.665Z,22.80
2019-04-04T14:29:29.914Z,19.90
2019-04-04T14:31:58.738Z,19.73
2019-04-04T14:34:27.748Z,19.30
2019-04-04T14:36:56.810Z,20.00
2019-04-04T14:39:26.152Z,19.27
2019-04-04T14:41:55.293Z,20.33
2019-04-04T14:44:24.669Z,18.73
2019-04-04T14:46:53.433Z,19.23
2019-04-04T14:49:22.244Z,18.37
2019-04-04T14:51:51.062Z,18.97
2019-04-04T14:54:20.370Z,19.03
2019-04-04T14:56:49.940Z,19.43
2019-04-04T14:59:18.969Z,19.70
2019-04-04T15:01:48.237Z,18.97
2019-04-04T15:04:17.804Z,18.70
2019-04-04T15:06:46.748Z,19.83
2019-04-04T15:09:15.856Z,20.40
2019-04-04T15:11:47.726Z,18.47
2019-04-04T15:14:16.857Z,20.33
2019-04-04T15:16:46.112Z,20.87
2019-04-04T15:19:16.491Z,20.70
2019-04-04T15:21:45.331Z,21.93
2019-04-04T15:24:14.100Z,19.43
2019-04-04T15:26:43.120Z,20.10
2019-04-04T15:29:12.683Z,21.03
2019-04-04T15:31:41.536Z,19.40
2019-04-04T15:34:10.598Z,20.33
2019-04-04T15:36:40.018Z,20.33
2019-04-04T15:39:08.796Z,21.13
2019-04-04T15:41:37.812Z,20.20
2019-04-04T15:44:06.919Z,20.53
2019-04-04T15:46:36.045Z,20.23
2019-04-04T15:49:05.192Z,21.93
2019-04-04T15:51:34.223Z,21.23
2019-04-04T15:54:03.303Z,23.03
2019-04-04T15:56:32.403Z,22.47
2019-04-04T15:59:01.442Z,20.97
2019-04-04T16:01:30.213Z,21.80
2019-04-04T16:03:58.999Z,22.17
2019-04-04T16:06:28.119Z,21.50
2019-04-04T16:08:57.693Z,20.90
2019-04-04T16:11:26.875Z,21.27
2019-04-04T16:13:55.711Z,21.43
2019-04-04T16:16:24.734Z,21.53
2019-04-04T16:18:53.788Z,21.93
2019-04-04T16:21:22.883Z,21.17
2019-04-04T16:23:51.736Z,22.73
2019-04-04T16:26:20.741Z,22.00
2019-04-04T16:28:49.890Z,22.77
2019-04-04T16:31:19.558Z,22.67
2019-04-04T16:33:48.936Z,23.40
2019-04-04T16:36:18.261Z,31.27
2019-04-04T16:38:47.071Z,24.20
2019-04-04T16:41:16.159Z,176.33
2019-04-04T16:43:45.412Z,31.97
2019-04-04T16:46:14.504Z,29.50
2019-04-04T16:48:43.627Z,22.93
2019-04-04T16:51:12.636Z,24.43
2019-04-04T16:53:41.407Z,25.40
2019-04-04T16:56:10.449Z,26.83
2019-04-04T16:58:39.543Z,26.33
2019-04-04T17:01:08.632Z,27.13
2019-04-04T17:03:37.399Z,25.40
2019-04-04T17:06:06.579Z,23.93
2019-04-04T17:08:35.371Z,26.50
2019-04-04T17:11:04.534Z,25.07
2019-04-04T17:13:33.576Z,26.47
2019-04-04T17:16:02.444Z,23.73
2019-04-04T17:18:31.206Z,24.70
2019-04-04T17:21:00.052Z,24.83
2019-04-04T17:23:29.307Z,25.43
2019-04-04T17:25:58.155Z,25.33
2019-04-04T17:28:27.032Z,25.33
2019-04-04T17:30:55.855Z,25.47
2019-04-04T17:33:25.239Z,26.57
2019-04-04T17:35:54.423Z,24.63
2019-04-04T17:38:23.291Z,24.50
2019-04-04T17:40:52.168Z,25.37
2019-04-04T17:43:21.289Z,23.80
2019-04-04T17:45:50.557Z,24.57
2019-04-04T17:48:19.882Z,25.57
2019-04-04T17:50:49.310Z,23.53
2019-04-04T17:53:18.368Z,24.17
2019-04-04T17:55:48.485Z,25.30
2019-04-04T17:58:18.342Z,24.83
2019-04-04T18:00:47.211Z,25.17
2019-04-04T18:03:16.287Z,24.93
2019-04-04T18:05:45.055Z,25.07
2019-04-04T18:08:13.871Z,26.87
2019-04-04T18:10:42.975Z,25.17
2019-04-04T18:13:11.742Z,25.67
2019-04-04T18:15:40.826Z,26.20
2019-04-04T18:18:10.079Z,24.93
2019-04-04T18:20:38.964Z,26.87
2019-04-04T18:23:07.757Z,26.27
2019-04-04T18:25:36.874Z,26.83
2019-04-04T18:28:05.718Z,27.57
2019-04-04T18:30:34.487Z,27.53
2019-04-04T18:33:03.655Z,26.90
2019-04-04T18:35:33.680Z,26.40
2019-04-04T18:38:02.542Z,26.93
2019-04-04T18:40:31.651Z,28.07
2019-04-04T18:43:00.675Z,26.80
2019-04-04T18:45:29.728Z,26.00
2019-04-04T18:47:58.483Z,26.40
2019-04-04T18:50:27.334Z,27.57
2019-04-04T18:52:56.098Z,28.37
2019-04-04T18:55:24.895Z,27.60
2019-04-04T18:57:53.683Z,28.13
2019-04-04T19:00:22.851Z,28.37
2019-04-04T19:02:51.648Z,28.80
2019-04-04T19:05:20.688Z,28.60
2019-04-04T19:07:49.778Z,29.20
2019-04-04T19:10:19.249Z,27.10
2019-04-04T19:12:48.094Z,30.47
2019-04-04T19:15:17.372Z,29.73
2019-04-04T19:17:46.474Z,29.83
2019-04-04T19:20:15.814Z,30.20
2019-04-04T19:22:44.883Z,31.20
2019-04-04T19:25:14.449Z,31.50
2019-04-04T19:27:43.647Z,31.57
2019-04-04T19:30:13.400Z,30.20
2019-04-04T19:32:42.173Z,31.60
2019-04-04T19:35:11.184Z,32.47
2019-04-04T19:37:40.190Z,34.60
2019-04-04T19:40:09.572Z,37.00
2019-04-04T19:42:38.745Z,34.97
2019-04-04T19:45:07.919Z,33.97
2019-04-04T19:47:36.999Z,35.53
2019-04-04T20:03:44.995Z,31.17
2019-04-04T20:06:13.803Z,29.50
2019-04-04T20:08:42.802Z,29.60
2019-04-04T20:11:11.717Z,29.80
2019-04-04T20:13:41.028Z,30.33
2019-04-04T20:16:12.263Z,31.00
2019-04-04T20:18:40.591Z,30.03
2019-04-04T20:21:09.928Z,30.90
2019-04-04T20:23:38.685Z,29.90
2019-04-04T20:26:07.834Z,30.23
2019-04-04T20:28:39.921Z,30.57
2019-04-04T20:31:07.522Z,31.47
2019-04-04T20:33:36.571Z,31.63
2019-04-04T20:36:05.637Z,33.87
2019-04-04T20:38:34.670Z,33.70
2019-04-04T20:41:03.955Z,34.80
2019-04-04T20:43:42.749Z,34.50
2019-04-04T20:46:03.315Z,33.80
2019-04-04T20:48:32.621Z,36.70
2019-04-04T20:51:01.786Z,35.73
2019-04-04T20:53:30.921Z,39.07
2019-04-04T20:55:59.708Z,37.33
2019-04-04T20:58:28.628Z,39.30
2019-04-04T21:00:57.451Z,41.93
2019-04-04T21:03:26.564Z,40.20
2019-04-04T21:05:55.318Z,40.07
2019-04-04T21:08:24.267Z,41.63
2019-04-04T21:10:53.613Z,46.67
2019-04-04T21:13:22.374Z,45.13
2019-04-04T21:15:51.180Z,45.27
2019-04-04T21:18:19.976Z,42.97
2019-04-04T21:20:48.779Z,43.40
2019-04-04T21:23:17.826Z,45.60
2019-04-04T21:25:46.737Z,46.30
2019-04-04T21:28:15.757Z,46.93
2019-04-04T21:30:44.671Z,45.33
2019-04-04T21:33:13.535Z,45.43
2019-04-04T21:35:42.680Z,46.37
2019-04-04T21:38:11.928Z,48.27
2019-04-04T21:40:40.992Z,46.60
2019-04-04T21:43:09.826Z,48.30
2019-04-04T21:45:38.590Z,44.70
2019-04-04T21:48:07.368Z,45.47
2019-04-04T21:50:38.266Z,44.40
2019-04-04T21:53:07.113Z,47.10
2019-04-04T21:55:36.589Z,44.13
2019-04-04T21:58:05.611Z,45.27
2019-04-04T22:00:41.220Z,45.33
2019-04-04T22:03:10.273Z,44.83
2019-04-04T22:05:39.756Z,42.33
2019-04-04T22:08:08.590Z,44.97
2019-04-04T22:10:37.383Z,44.30
2019-04-04T22:13:06.239Z,46.20
2019-04-04T22:15:35.592Z,45.50
2019-04-04T22:18:04.545Z,43.00
2019-04-04T22:20:33.306Z,45.30
2019-04-04T22:23:02.993Z,47.50
2019-04-04T22:25:32.042Z,44.43
2019-04-04T22:28:00.842Z,46.43
2019-04-04T22:30:29.991Z,46.97
2019-04-04T22:33:01.714Z,46.10
2019-04-04T22:35:29.975Z,45.17
2019-04-04T22:37:58.739Z,45.03
2019-04-04T22:40:27.562Z,47.57
2019-04-04T22:42:56.677Z,45.87
2019-04-04T22:45:25.436Z,46.50
2019-04-04T22:47:54.283Z,47.87
2019-04-04T22:50:23.591Z,47.10
2019-04-04T22:52:52.843Z,45.60
2019-04-04T22:55:22.451Z,48.30
2019-04-04T22:57:51.245Z,44.40
2019-04-04T23:00:20.161Z,45.33
2019-04-04T23:02:49.163Z,45.27
2019-04-04T23:05:18.239Z,43.30
2019-04-04T23:07:47.395Z,44.87
2019-04-04T23:10:16.292Z,42.43
2019-04-04T23:12:45.077Z,43.73
2019-04-04T23:15:13.924Z,39.17
2019-04-04T23:17:45.354Z,44.57
2019-04-04T23:20:13.585Z,42.80
2019-04-04T23:22:52.159Z,43.97
2019-04-04T23:25:13.109Z,42.13
2019-04-04T23:27:42.031Z,41.57
2019-04-04T23:30:11.231Z,43.03
2019-04-04T23:32:39.983Z,42.50
2019-04-04T23:35:09.016Z,41.07
2019-04-04T23:37:38.239Z,40.90
2019-04-04T23:40:07.431Z,41.77
2019-04-04T23:42:36.504Z,41.47
2019-04-04T23:45:05.999Z,41.67
2019-04-04T23:47:42.820Z,38.83
2019-04-04T23:50:05.784Z,42.50
2019-04-04T23:52:34.803Z,42.70
2019-04-04T23:55:03.924Z,42.17
2019-04-04T23:57:32.725Z,43.23
